Time;durP1;ratioP1;P1;durP2;ratioP2;P2;SDS_P1;SDS_P2;PMS_P1;PMS_P2;Temp;Humidity;BMP_temperature;BMP_pressure;BME280_temperature;BME280_humidity;BME280_pressure;Samples;Min_cycle;Max_cycle;Signal;HPM_P1;HPM_P2
2023/04/23 00:00:50;;;;;;;5.93;4.65;;;;;;;7.53;69.13;94759.50;5055743;28;20035;-73
2023/04/23 00:03:16;;;;;;;5.75;4.03;;;;;;;7.47;69.54;94753.03;5040960;28;20067;-73
2023/04/23 00:05:41;;;;;;;10.10;4.50;;;;;;;7.52;69.33;94752.69;5051437;28;20449;-73
2023/04/23 00:08:07;;;;;;;5.38;3.95;;;;;;;7.33;69.50;94743.66;5057009;28;20036;-73
2023/04/23 00:10:33;;;;;;;6.32;4.05;;;;;;;7.34;69.57;94739.31;5036503;28;20032;-73
2023/04/23 00:12:58;;;;;;;7.82;4.43;;;;;;;7.26;69.79;94731.28;5060739;28;20032;-73
2023/04/23 00:15:25;;;;;;;7.65;4.68;;;;;;;7.40;69.68;94741.47;5037200;28;20045;-73
2023/04/23 00:17:51;;;;;;;6.82;4.22;;;;;;;7.49;69.57;94745.97;5051914;28;20028;-73
2023/04/23 00:20:16;;;;;;;7.20;4.57;;;;;;;7.53;70.16;94751.75;5073400;28;20399;-73
2023/04/23 00:22:42;;;;;;;5.35;4.22;;;;;;;7.66;69.41;94749.09;5067919;28;20035;-73
2023/04/23 00:25:08;;;;;;;8.32;4.97;;;;;;;7.70;69.23;94753.94;5036965;28;20036;-72
2023/04/23 00:27:34;;;;;;;6.70;4.28;;;;;;;7.55;69.23;94719.69;5069813;28;20035;-73
2023/04/23 00:30:00;;;;;;;8.00;4.25;;;;;;;7.75;69.14;94748.44;5037091;28;20029;-73
2023/04/23 00:32:25;;;;;;;5.20;4.07;;;;;;;7.71;69.49;94739.25;5069947;28;20078;-72
2023/04/23 00:34:51;;;;;;;4.80;4.25;;;;;;;7.61;69.33;94737.34;5042426;28;20035;-72
2023/04/23 00:37:16;;;;;;;5.85;4.30;;;;;;;7.79;69.32;94761.03;5056477;28;20035;-73
2023/04/23 00:39:43;;;;;;;4.78;3.50;;;;;;;7.76;69.32;94742.34;5056877;28;20035;-72
2023/04/23 00:42:12;;;;;;;6.28;4.20;;;;;;;7.72;69.35;94746.91;5090270;28;20028;-73
2023/04/23 00:44:38;;;;;;;6.32;4.82;;;;;;;7.59;69.28;94739.19;5057028;28;20024;-73
2023/04/23 00:47:04;;;;;;;6.75;4.18;;;;;;;7.39;69.67;94734.66;5056909;28;20032;-73
2023/04/23 00:49:30;;;;;;;5.70;4.28;;;;;;;7.61;69.06;94745.09;5073430;28;20028;-73
2023/04/23 00:51:55;;;;;;;6.00;4.60;;;;;;;7.51;69.04;94727.78;5039844;28;20056;-73
2023/04/23 00:54:21;;;;;;;4.95;4.03;;;;;;;7.52;69.17;94745.78;5056589;28;20455;-73
2023/04/23 00:56:47;;;;;;;7.32;4.35;;;;;;;7.53;68.96;94746.59;5056554;28;20039;-73
2023/04/23 00:59:13;;;;;;;7.07;4.30;;;;;;;7.43;69.87;94738.66;5073004;28;20051;-73
2023/04/23 01:01:39;;;;;;;6.00;4.35;;;;;;;7.41;69.68;94750.03;5072659;28;20070;-73
2023/04/23 01:04:05;;;;;;;6.25;4.28;;;;;;;7.30;70.13;94740.44;5056483;28;20028;-73
2023/04/23 01:06:30;;;;;;;6.13;4.40;;;;;;;7.36;69.92;94746.03;5056196;28;20040;-73
2023/04/23 01:08:56;;;;;;;6.65;4.82;;;;;;;7.29;70.13;94741.41;5056186;28;20020;-73
2023/04/23 01:11:21;;;;;;;4.78;4.18;;;;;;;7.17;70.41;94730.19;5067654;28;20025;-73
2023/04/23 01:13:47;;;;;;;5.97;4.78;;;;;;;7.21;70.61;94741.94;5036183;28;20426;-73
2023/04/23 01:16:12;;;;;;;5.72;4.55;;;;;;;7.18;70.60;94741.34;5019610;28;20527;-73
2023/04/23 01:18:39;;;;;;;8.75;4.85;;;;;;;7.21;70.62;94747.09;5036254;28;20040;-73
2023/04/23 01:21:06;;;;;;;6.70;4.47;;;;;;;7.14;70.44;94749.31;5053101;28;20158;-73
2023/04/23 01:23:31;;;;;;;6.15;4.70;;;;;;;7.15;70.69;94753.53;5036422;28;20032;-73
2023/04/23 01:25:57;;;;;;;6.13;4.57;;;;;;;7.00;70.25;94738.28;5052752;28;20067;-73
2023/04/23 01:28:23;;;;;;;6.45;4.68;;;;;;;6.93;70.61;94743.03;5036770;28;20505;-73
2023/04/23 01:30:48;;;;;;;5.85;4.72;;;;;;;6.91;70.81;94750.09;5056623;28;20072;-73
2023/04/23 01:33:14;;;;;;;6.70;4.53;;;;;;;6.98;70.65;94740.16;5056923;28;20021;-73
2023/04/23 01:35:42;;;;;;;10.93;7.43;;;;;;;6.93;70.42;94741.28;5040097;28;20094;-72
2023/04/23 01:38:09;;;;;;;7.63;5.35;;;;;;;6.98;70.55;94760.81;5023410;28;20089;-72
2023/04/23 01:40:34;;;;;;;6.00;4.90;;;;;;;6.87;70.96;94761.56;5040461;28;20391;-72
2023/04/23 01:43:00;;;;;;;6.50;5.05;;;;;;;6.77;71.16;94758.78;5056546;28;20039;-72
2023/04/23 01:45:25;;;;;;;8.80;5.30;;;;;;;6.70;71.49;94770.47;5023239;28;20032;-73
2023/04/23 01:47:51;;;;;;;7.65;5.40;;;;;;;6.55;71.44;94767.16;5039873;28;20535;-73
2023/04/23 01:50:16;;;;;;;11.00;5.20;;;;;;;6.41;71.18;94754.38;5039687;28;20029;-73
2023/04/23 01:52:43;;;;;;;6.88;5.30;;;;;;;6.40;71.35;94773.34;5039583;28;20033;-73
2023/04/23 01:55:09;;;;;;;7.13;5.15;;;;;;;6.43;70.95;94778.31;5023469;28;20090;-73
2023/04/23 01:57:35;;;;;;;5.65;4.63;;;;;;;6.34;71.16;94773.75;5039636;28;20029;-73
2023/04/23 02:00:13;;;;;;;6.60;5.00;;;;;;;6.16;71.21;94765.50;5039529;28;20033;-73
2023/04/23 02:02:39;;;;;;;5.55;4.57;;;;;;;5.92;71.45;94760.16;5025630;28;20473;-73
2023/04/23 02:05:09;;;;;;;5.95;4.65;;;;;;;6.05;71.80;94776.53;5039527;28;20039;-73
2023/04/23 02:07:35;;;;;;;7.22;4.80;;;;;;;5.98;72.08;94765.78;5039585;28;20032;-73
2023/04/23 02:10:01;;;;;;;6.82;5.22;;;;;;;5.98;71.12;94760.59;5056048;28;20422;-73
2023/04/23 02:12:26;;;;;;;7.85;4.45;;;;;;;5.84;71.35;94783.84;5053596;28;20551;-74
2023/04/23 02:14:52;;;;;;;6.55;5.00;;;;;;;5.71;72.10;94783.84;5076207;28;20027;-73
2023/04/23 02:17:21;;;;;;;8.02;5.20;;;;;;;5.74;71.84;94778.47;5092705;28;20046;-74
2023/04/23 02:19:50;;;;;;;7.28;4.75;;;;;;;5.62;72.40;94774.09;5076229;28;20116;-73
2023/04/23 02:22:16;;;;;;;7.43;4.95;;;;;;;5.60;72.53;94783.69;5076208;28;20032;-73
2023/04/23 02:24:43;;;;;;;6.95;5.15;;;;;;;5.47;72.93;94778.50;5093066;28;20051;-73
2023/04/23 02:27:08;;;;;;;7.65;5.43;;;;;;;5.21;73.38;94753.53;5075902;28;20542;-73
2023/04/23 02:29:35;;;;;;;6.85;5.07;;;;;;;5.37;72.61;94769.69;5059239;28;20112;-73
2023/04/23 02:32:01;;;;;;;5.72;4.60;;;;;;;5.40;72.14;94776.38;5059017;28;20064;-73
2023/04/23 02:34:27;;;;;;;5.78;4.78;;;;;;;5.31;71.98;94776.03;5094141;28;20103;-73
2023/04/23 02:36:52;;;;;;;7.95;5.22;;;;;;;5.20;72.97;94769.91;5058669;28;20119;-73
2023/04/23 02:39:18;;;;;;;8.20;5.45;;;;;;;5.18;73.60;94772.56;5093768;28;20016;-73
2023/04/23 02:41:43;;;;;;;7.55;5.60;;;;;;;5.12;73.82;94767.81;5058410;28;20524;-74
2023/04/23 02:44:09;;;;;;;7.80;5.70;;;;;;;4.87;73.48;94740.19;5093891;28;20110;-73
2023/04/23 02:46:36;;;;;;;7.85;5.63;;;;;;;4.92;74.61;94777.59;5075373;28;20047;-73
2023/04/23 02:49:01;;;;;;;8.40;6.38;;;;;;;4.91;74.92;94757.09;5058957;28;20383;-74
2023/04/23 02:51:27;;;;;;;8.27;5.93;;;;;;;4.93;74.85;94765.53;5041822;28;20135;-74
2023/04/23 02:53:52;;;;;;;10.63;6.70;;;;;;;4.95;75.12;94774.00;5075425;28;20028;-73
2023/04/23 02:56:18;;;;;;;8.65;5.68;;;;;;;5.00;74.89;94755.72;5075178;28;20521;-73
2023/04/23 02:58:44;;;;;;;7.72;5.35;;;;;;;5.17;74.43;94778.66;5058932;28;20027;-74
2023/04/23 03:01:09;;;;;;;7.20;4.82;;;;;;;5.26;74.31;94784.97;5074961;28;20040;-74
2023/04/23 03:03:35;;;;;;;6.88;5.38;;;;;;;5.36;74.24;94786.88;5058632;28;20040;-74
2023/04/23 03:06:01;;;;;;;7.75;5.72;;;;;;;5.45;74.32;94782.09;5092919;28;20039;-73
2023/04/23 03:08:27;;;;;;;6.88;5.00;;;;;;;5.52;74.96;94788.50;5075216;28;20032;-73
2023/04/23 03:10:52;;;;;;;11.57;6.00;;;;;;;5.32;74.98;94772.56;5073722;28;20062;-73
2023/04/23 03:13:18;;;;;;;7.40;5.22;;;;;;;5.49;74.95;94789.53;5054794;28;20028;-74
2023/04/23 03:15:43;;;;;;;7.55;5.90;;;;;;;5.28;74.94;94776.25;5038201;28;20410;-73
2023/04/23 03:18:08;;;;;;;9.63;5.80;;;;;;;5.28;75.02;94789.13;5021764;28;20029;-73
2023/04/23 03:20:34;;;;;;;6.68;5.07;;;;;;;5.27;74.94;94792.63;5054564;28;20068;-73
2023/04/23 03:23:00;;;;;;;7.85;5.43;;;;;;;5.28;75.12;94785.72;5037986;28;20028;-73
2023/04/23 03:25:26;;;;;;;8.77;5.53;;;;;;;5.22;75.44;94786.94;5054378;28;20054;-73
2023/04/23 03:27:51;;;;;;;8.50;5.13;;;;;;;5.15;75.81;94795.94;5054481;28;20508;-73
2023/04/23 03:30:17;;;;;;;7.50;5.65;;;;;;;5.18;75.13;94792.34;5054350;28;20032;-73
2023/04/23 03:32:42;;;;;;;7.00;5.50;;;;;;;5.04;75.69;94783.75;5038782;28;20027;-73
2023/04/23 03:35:08;;;;;;;6.88;5.50;;;;;;;4.95;76.08;94784.28;5052121;28;20044;-73
2023/04/23 03:37:34;;;;;;;7.68;5.97;;;;;;;5.05;75.79;94792.31;5021135;28;20039;-73
2023/04/23 03:40:02;;;;;;;7.65;5.85;;;;;;;4.89;75.69;94785.50;5034520;28;20032;-73
2023/04/23 03:42:27;;;;;;;7.90;6.10;;;;;;;4.93;76.20;94799.84;5074737;28;20023;-73
2023/04/23 03:44:53;;;;;;;8.18;5.60;;;;;;;5.02;76.23;94807.94;5074092;28;20028;-73
2023/04/23 03:47:18;;;;;;;8.75;5.95;;;;;;;4.95;75.96;94774.00;5040799;28;20099;-73
2023/04/23 03:49:44;;;;;;;9.55;6.13;;;;;;;5.15;75.48;94795.94;5074452;28;20024;-73
2023/04/23 03:52:09;;;;;;;7.75;5.78;;;;;;;5.21;75.53;94800.75;5026244;28;20184;-73
2023/04/23 03:54:35;;;;;;;10.15;6.28;;;;;;;5.15;75.15;94816.53;5072081;28;20020;-73
2023/04/23 03:57:00;;;;;;;7.85;6.30;;;;;;;5.23;75.49;94809.19;5037409;28;20059;-73
2023/04/23 03:59:26;;;;;;;9.73;6.25;;;;;;;5.26;75.79;94816.72;5054215;28;20375;-73
2023/04/23 04:01:51;;;;;;;7.78;6.10;;;;;;;5.23;76.00;94804.03;5053892;28;20122;-73
2023/04/23 04:04:17;;;;;;;7.60;6.38;;;;;;;5.31;76.15;94817.25;5037222;28;20510;-73
2023/04/23 04:06:42;;;;;;;7.72;6.15;;;;;;;5.28;75.41;94789.13;5053809;28;20025;-74
2023/04/23 04:09:07;;;;;;;8.38;5.72;;;;;;;5.45;75.58;94825.88;5053866;28;20436;-73
2023/04/23 04:11:33;;;;;;;8.23;5.45;;;;;;;5.44;75.99;94819.09;5036894;28;20129;-73
2023/04/23 04:13:59;;;;;;;6.88;5.57;;;;;;;5.58;76.31;94821.63;5037049;28;20032;-73
2023/04/23 04:16:24;;;;;;;8.40;6.07;;;;;;;5.54;76.48;94821.00;5071502;28;20028;-74
2023/04/23 04:18:50;;;;;;;8.48;5.95;;;;;;;5.69;76.64;94831.25;5037171;28;20153;-73
2023/04/23 04:21:17;;;;;;;10.30;6.95;;;;;;;5.75;76.74;94825.72;5037038;28;20083;-73
2023/04/23 04:23:43;;;;;;;8.23;6.07;;;;;;;5.96;76.39;94824.38;5053757;28;20409;-74
2023/04/23 04:26:09;;;;;;;7.22;6.03;;;;;;;5.75;76.43;94800.75;5063987;28;20028;-73
2023/04/23 04:28:36;;;;;;;8.05;6.45;;;;;;;5.90;76.30;94827.28;5081017;28;20035;-73
2023/04/23 04:31:05;;;;;;;9.77;6.38;;;;;;;6.04;75.77;94811.81;5048073;28;20032;-73
2023/04/23 04:33:34;;;;;;;7.63;6.22;;;;;;;6.15;75.33;94815.44;5088854;28;20048;-73
2023/04/23 04:36:00;;;;;;;7.22;6.20;;;;;;;6.24;74.71;94830.28;5050104;28;20040;-73
2023/04/23 04:38:26;;;;;;;7.10;6.15;;;;;;;6.49;73.96;94826.91;5068549;28;20024;-73
2023/04/23 04:40:54;;;;;;;7.35;6.00;;;;;;;6.68;72.86;94829.94;5055170;28;20020;-73
2023/04/23 04:43:19;;;;;;;9.20;6.07;;;;;;;6.89;72.34;94840.56;5068331;28;20036;-73
2023/04/23 04:45:45;;;;;;;9.00;6.13;;;;;;;7.07;72.06;94822.16;5085089;28;20028;-73
2023/04/23 04:48:10;;;;;;;8.45;6.88;;;;;;;7.57;70.57;94825.56;5071189;28;20031;-72
2023/04/23 04:50:36;;;;;;;9.18;6.95;;;;;;;7.44;70.25;94825.63;5084011;28;20021;-73
2023/04/23 04:53:01;;;;;;;8.70;7.25;;;;;;;8.83;67.61;94840.53;5053213;28;20036;-73
2023/04/23 04:55:27;;;;;;;9.07;7.35;;;;;;;9.97;63.19;94826.50;5083911;28;20028;-72
2023/04/23 04:57:52;;;;;;;10.50;7.18;;;;;;;10.06;60.43;94837.00;5066594;28;20043;-73
2023/04/23 05:00:22;;;;;;;8.95;7.05;;;;;;;10.55;59.71;94834.78;5080651;28;20020;-74
2023/04/23 05:02:49;;;;;;;8.93;6.45;;;;;;;10.90;58.08;94833.66;5057258;28;20050;-72
2023/04/23 05:05:15;;;;;;;7.65;6.28;;;;;;;11.19;57.68;94838.97;5076236;28;20038;-75
2023/04/23 05:07:40;;;;;;;6.65;5.38;;;;;;;11.57;56.16;94827.09;5079187;28;20421;-74
2023/04/23 05:10:06;;;;;;;7.07;5.65;;;;;;;11.81;56.11;94830.16;5072251;28;20028;-75
2023/04/23 05:12:31;;;;;;;7.38;5.25;;;;;;;12.01;55.32;94832.84;5076698;28;20119;-75
2023/04/23 05:14:57;;;;;;;5.80;5.20;;;;;;;11.68;55.84;94828.75;5084870;28;20552;-73
2023/04/23 05:17:22;;;;;;;8.45;6.03;;;;;;;11.61;55.77;94825.84;5067703;28;20475;-73
2023/04/23 05:19:48;;;;;;;6.60;5.60;;;;;;;11.62;56.28;94830.94;5063317;28;20047;-73
2023/04/23 05:22:14;;;;;;;9.27;6.75;;;;;;;11.48;56.08;94836.50;5063937;28;20031;-73
2023/04/23 05:24:40;;;;;;;8.35;6.22;;;;;;;11.17;57.22;94828.72;5041692;28;20074;-73
2023/04/23 05:27:05;;;;;;;10.27;7.93;;;;;;;10.76;58.32;94821.00;5061288;28;20028;-73
2023/04/23 05:29:31;;;;;;;10.02;7.57;;;;;;;11.12;57.72;94838.69;5094786;28;20023;-72
2023/04/23 05:31:56;;;;;;;11.93;7.05;;;;;;;11.36;57.12;94827.97;5080147;28;20055;-72
2023/04/23 05:34:22;;;;;;;8.90;6.60;;;;;;;11.46;56.20;94820.22;5064704;28;20035;-73
2023/04/23 05:36:47;;;;;;;9.35;6.93;;;;;;;11.68;56.45;94836.56;5054994;28;20032;-73
2023/04/23 05:39:12;;;;;;;13.02;8.93;;;;;;;11.50;57.06;94834.56;5077797;28;20031;-72
2023/04/23 05:41:38;;;;;;;8.10;6.30;;;;;;;11.29;57.34;94833.84;5064184;28;20066;-72
2023/04/23 05:44:03;;;;;;;7.68;6.88;;;;;;;11.48;57.25;94836.50;5064734;28;20033;-73
2023/04/23 05:46:29;;;;;;;16.48;11.65;;;;;;;11.64;57.07;94843.81;5083355;28;20032;-72
2023/04/23 05:48:54;;;;;;;8.65;5.78;;;;;;;11.18;58.25;94835.56;5072484;28;20051;-73
2023/04/23 05:51:20;;;;;;;7.10;6.03;;;;;;;11.55;57.90;94842.81;5084056;28;20039;-73
2023/04/23 05:53:46;;;;;;;7.00;5.85;;;;;;;11.98;57.15;94852.16;5082266;28;20024;-73
2023/04/23 05:56:11;;;;;;;8.35;6.30;;;;;;;12.29;55.83;94844.22;5094619;28;20033;-73
2023/04/23 05:58:37;;;;;;;8.65;5.72;;;;;;;12.03;56.50;94847.34;5095824;28;20515;-73
2023/04/23 06:01:03;;;;;;;7.00;5.70;;;;;;;11.85;56.71;94836.78;5096021;28;20611;-73
2023/04/23 06:03:28;;;;;;;11.75;6.10;;;;;;;11.97;56.77;94837.47;5056034;28;20096;-73
2023/04/23 06:05:54;;;;;;;10.52;7.70;;;;;;;12.31;56.24;94842.28;5095253;28;20502;-72
2023/04/23 06:08:19;;;;;;;11.50;8.43;;;;;;;12.55;56.34;94838.47;5086701;28;20040;-73
2023/04/23 06:10:45;;;;;;;14.07;8.18;;;;;;;12.77;55.61;94835.56;5088576;28;20028;-73
2023/04/23 06:13:11;;;;;;;11.00;7.32;;;;;;;12.92;55.38;94835.91;5077820;28;20031;-73
2023/04/23 06:15:36;;;;;;;7.35;6.53;;;;;;;13.14;54.63;94834.78;5075524;28;20089;-72
2023/04/23 06:18:02;;;;;;;9.77;6.43;;;;;;;13.15;54.12;94826.00;5075311;28;20028;-72
2023/04/23 06:20:28;;;;;;;9.00;6.70;;;;;;;13.13;54.32;94825.31;5045641;28;20294;-73
2023/04/23 06:22:53;;;;;;;8.52;6.28;;;;;;;13.14;54.37;94838.19;5042753;28;20094;-72
2023/04/23 06:25:19;;;;;;;7.60;6.10;;;;;;;12.93;54.03;94827.97;5074783;28;20024;-73
2023/04/23 06:27:45;;;;;;;10.20;7.03;;;;;;;13.08;54.03;94830.13;5075214;28;20024;-73
2023/04/23 06:30:11;;;;;;;6.78;6.07;;;;;;;13.41;53.87;94834.03;5054899;28;20028;-73
2023/04/23 06:32:36;;;;;;;10.10;6.53;;;;;;;13.45;53.29;94800.63;5059656;28;20040;-73
2023/04/23 06:35:03;;;;;;;7.03;6.20;;;;;;;13.88;52.88;94828.72;5074507;28;20032;-72
2023/04/23 06:37:30;;;;;;;7.72;5.30;;;;;;;14.10;51.81;94832.69;5093166;28;20020;-73
2023/04/23 06:39:56;;;;;;;7.25;5.53;;;;;;;14.18;51.96;94829.31;5074874;28;20053;-73
2023/04/23 06:42:22;;;;;;;11.38;7.88;;;;;;;13.89;52.75;94829.53;5089299;28;20035;-72
2023/04/23 06:44:48;;;;;;;10.93;6.70;;;;;;;14.08;52.59;94825.00;5045896;28;20102;-77
2023/04/23 06:47:13;;;;;;;9.05;5.85;;;;;;;14.11;52.85;94823.06;5058244;28;20036;-77
2023/04/23 06:49:39;;;;;;;9.52;6.38;;;;;;;13.65;54.00;94823.06;5055014;28;20538;-71
2023/04/23 06:52:05;;;;;;;9.10;6.35;;;;;;;13.62;53.79;94782.44;5071787;28;20111;-72
2023/04/23 06:54:30;;;;;;;9.82;6.28;;;;;;;14.11;53.28;94821.25;5051108;28;20039;-73
2023/04/23 06:56:56;;;;;;;9.32;5.97;;;;;;;14.25;52.95;94818.13;5054955;28;20028;-73
2023/04/23 06:59:21;;;;;;;8.18;6.28;;;;;;;14.31;53.29;94811.50;5085723;28;20028;-73
2023/04/23 07:01:47;;;;;;;7.53;6.15;;;;;;;14.42;53.29;94820.91;5093545;28;20047;-73
2023/04/23 07:04:12;;;;;;;9.55;6.03;;;;;;;14.44;52.55;94818.97;5092895;28;20040;-71
2023/04/23 07:06:38;;;;;;;7.55;6.05;;;;;;;14.24;52.82;94792.16;5088521;28;20039;-78
2023/04/23 07:09:03;;;;;;;11.93;6.53;;;;;;;14.64;52.49;94809.19;5021249;28;20025;-76
2023/04/23 07:11:30;;;;;;;6.97;5.90;;;;;;;14.65;52.19;94816.84;5070698;28;20258;-78
2023/04/23 07:13:56;;;;;;;9.10;6.05;;;;;;;14.74;51.42;94797.66;5084138;28;20032;-78
2023/04/23 07:16:23;;;;;;;7.68;6.45;;;;;;;14.95;51.06;94814.78;5072422;28;20051;-76
2023/04/23 07:18:49;;;;;;;7.93;6.28;;;;;;;14.91;51.49;94811.66;5073020;28;20367;-77
2023/04/23 07:21:14;;;;;;;8.20;6.38;;;;;;;14.83;51.13;94811.63;5075185;28;20042;-82
2023/04/23 07:23:40;;;;;;;10.60;6.70;;;;;;;14.69;51.66;94799.09;5070837;28;20043;-81
2023/04/23 07:26:05;;;;;;;15.02;12.02;;;;;;;14.80;51.83;94811.09;5080016;28;20032;-81
2023/04/23 07:28:31;;;;;;;9.20;6.95;;;;;;;14.75;50.83;94773.16;5071092;28;20048;-81
2023/04/23 07:30:57;;;;;;;8.98;7.07;;;;;;;14.93;51.11;94770.50;5084774;28;20028;-78
2023/04/23 07:33:22;;;;;;;8.60;6.47;;;;;;;15.33;49.64;94804.88;5080018;28;20366;-77
2023/04/23 07:35:48;;;;;;;8.52;7.05;;;;;;;15.57;49.18;94805.00;5061749;28;20063;-79
2023/04/23 07:38:13;;;;;;;9.68;7.13;;;;;;;15.33;48.95;94794.41;5079520;28;20027;-78
2023/04/23 07:40:39;;;;;;;9.57;6.60;;;;;;;15.59;48.30;94797.78;5069666;28;20525;-77
2023/04/23 07:43:04;;;;;;;7.20;6.50;;;;;;;15.65;47.04;94805.00;5069066;28;20051;-77
2023/04/23 07:45:30;;;;;;;10.05;6.68;;;;;;;15.80;47.16;94794.78;5073478;28;20094;-77
2023/04/23 07:47:56;;;;;;;10.15;6.63;;;;;;;15.85;47.67;94805.59;5098576;28;20040;-77
2023/04/23 07:50:21;;;;;;;7.53;6.70;;;;;;;15.92;47.03;94805.78;5060759;28;20119;-79
2023/04/23 07:52:47;;;;;;;8.18;6.57;;;;;;;15.78;46.87;94804.59;5069448;28;20452;-77
2023/04/23 07:55:12;;;;;;;7.97;6.53;;;;;;;15.59;46.85;94784.69;5028846;28;20021;-77
2023/04/23 07:57:38;;;;;;;8.95;6.05;;;;;;;15.38;47.40;94810.47;5045628;28;20028;-78
2023/04/23 08:00:08;;;;;;;8.38;6.00;;;;;;;15.29;47.42;94790.44;5069993;28;20086;-74
2023/04/23 08:02:34;;;;;;;11.40;7.03;;;;;;;15.57;47.63;94801.53;5034632;28;20041;-74
2023/04/23 08:04:59;;;;;;;7.47;6.68;;;;;;;15.41;48.23;94776.13;5030708;28;20438;-74
2023/04/23 08:07:25;;;;;;;8.23;6.50;;;;;;;15.57;47.50;94802.38;5049233;28;20032;-73
2023/04/23 08:09:51;;;;;;;8.43;6.38;;;;;;;15.74;47.30;94808.53;5049510;28;20025;-73
2023/04/23 08:12:18;;;;;;;7.05;6.30;;;;;;;15.80;46.57;94800.03;5048995;28;20040;-73
2023/04/23 08:14:43;;;;;;;8.30;6.35;;;;;;;16.11;46.81;94799.44;5033601;28;20033;-72
2023/04/23 08:17:09;;;;;;;11.82;6.68;;;;;;;15.98;45.96;94793.84;5067860;28;20037;-71
2023/04/23 08:19:34;;;;;;;12.65;6.95;;;;;;;16.20;46.49;94798.47;5082618;28;20029;-75
2023/04/23 08:22:00;;;;;;;10.05;6.82;;;;;;;16.44;45.43;94794.25;5034458;28;20074;-74
2023/04/23 08:24:28;;;;;;;10.10;7.40;;;;;;;16.61;44.86;94768.84;5051703;28;20025;-75
2023/04/23 08:26:54;;;;;;;8.68;7.05;;;;;;;16.75;44.76;94797.00;5054330;28;20041;-74
2023/04/23 08:29:19;;;;;;;9.73;7.20;;;;;;;17.08;43.74;94786.50;5040083;28;20126;-74
2023/04/23 08:31:45;;;;;;;7.55;6.57;;;;;;;16.61;44.81;94779.31;5039587;28;20033;-75
2023/04/23 08:34:10;;;;;;;9.38;7.20;;;;;;;16.86;44.78;94788.84;5065657;28;20033;-75
2023/04/23 08:36:36;;;;;;;8.27;6.47;;;;;;;16.96;43.78;94765.03;5068538;28;20025;-75
2023/04/23 08:39:02;;;;;;;10.55;7.18;;;;;;;17.02;44.09;94784.53;5050954;28;20036;-75
2023/04/23 08:41:32;;;;;;;13.70;10.50;;;;;;;17.06;43.95;94776.16;5051200;28;20031;-75
2023/04/23 08:44:21;;;;;;;11.75;7.85;;;;;;;17.32;43.66;94778.53;5067555;28;20435;-74
2023/04/23 08:46:46;;;;;;;8.55;6.93;;;;;;;16.82;44.00;94774.41;5068268;28;20033;-75
2023/04/23 08:49:16;;;;;;;7.55;6.43;;;;;;;16.95;44.08;94764.22;5051109;28;20040;-75
2023/04/23 08:51:52;;;;;;;9.18;7.95;;;;;;;17.32;43.36;94765.41;5068269;28;20051;-75
2023/04/23 08:54:25;;;;;;;7.25;6.50;;;;;;;17.42;42.48;94768.69;5034768;28;20036;-75
2023/04/23 08:56:51;;;;;;;7.78;5.93;;;;;;;17.54;42.13;94758.59;5051297;28;20093;-75
2023/04/23 08:59:17;;;;;;;13.02;7.03;;;;;;;17.67;42.70;94770.38;5067827;28;20097;-75
2023/04/23 09:01:43;;;;;;;7.00;6.30;;;;;;;17.51;42.20;94766.03;5051337;28;20109;-75
2023/04/23 09:04:09;;;;;;;7.78;6.43;;;;;;;17.35;41.83;94777.41;5069680;28;20025;-74
2023/04/23 09:06:35;;;;;;;9.30;6.28;;;;;;;17.50;42.84;94759.97;5052826;28;20112;-75
2023/04/23 09:09:00;;;;;;;11.52;6.18;;;;;;;17.20;41.55;94769.41;5069914;28;20101;-74
2023/04/23 09:11:26;;;;;;;9.13;6.38;;;;;;;17.38;41.67;94762.13;5069510;28;20406;-74
2023/04/23 09:13:52;;;;;;;10.70;6.70;;;;;;;17.68;42.16;94761.50;5053022;28;20449;-74
2023/04/23 09:16:17;;;;;;;7.10;6.20;;;;;;;17.77;40.86;94761.28;5052704;28;20020;-75
2023/04/23 09:18:43;;;;;;;11.27;6.80;;;;;;;17.89;40.94;94758.31;5069420;28;20417;-74
2023/04/23 09:21:08;;;;;;;11.80;7.15;;;;;;;17.77;40.88;94760.47;5070695;28;20410;-75
2023/04/23 09:23:37;;;;;;;10.20;6.53;;;;;;;17.72;41.89;94757.53;5052755;28;20059;-75
2023/04/23 09:26:05;;;;;;;7.40;6.13;;;;;;;17.72;40.57;94752.28;5035998;28;20058;-75
2023/04/23 09:28:36;;;;;;;10.43;6.35;;;;;;;17.65;40.79;94757.41;5052730;28;20514;-74
2023/04/23 09:31:04;;;;;;;8.70;6.63;;;;;;;17.53;40.61;94753.53;5069146;28;20089;-74
2023/04/23 09:33:31;;;;;;;9.50;6.35;;;;;;;17.46;40.68;94742.06;5069220;28;20044;-75
2023/04/23 09:35:57;;;;;;;11.32;6.20;;;;;;;17.36;40.39;94743.09;5052679;28;20086;-74
2023/04/23 09:38:22;;;;;;;8.88;5.68;;;;;;;17.59;39.81;94722.16;5069336;28;20028;-74
2023/04/23 09:40:49;;;;;;;8.98;6.88;;;;;;;17.43;40.67;94743.22;5069169;28;20411;-75
2023/04/23 09:43:14;;;;;;;9.05;6.15;;;;;;;17.60;40.01;94734.28;5052773;28;20045;-75
2023/04/23 09:45:48;;;;;;;7.65;6.80;;;;;;;17.69;40.29;94727.19;5052639;28;20146;-75
2023/04/23 09:48:13;;;;;;;8.98;6.90;;;;;;;17.84;39.94;94720.22;5069228;28;20029;-74
2023/04/23 09:50:39;;;;;;;10.82;6.60;;;;;;;17.98;39.60;94725.75;5054032;28;20036;-73
2023/04/23 09:53:05;;;;;;;8.18;5.93;;;;;;;18.21;38.89;94725.72;5072824;28;20036;-75
2023/04/23 09:55:39;;;;;;;10.80;7.18;;;;;;;18.13;38.95;94691.63;5056329;28;20469;-74
2023/04/23 09:58:06;;;;;;;8.07;6.68;;;;;;;18.27;38.62;94717.13;5072946;28;20513;-74
2023/04/23 10:00:33;;;;;;;9.45;6.90;;;;;;;18.31;38.32;94714.00;5056121;28;20465;-74
2023/04/23 10:02:59;;;;;;;7.03;6.32;;;;;;;18.22;38.42;94707.16;5039699;28;20076;-74
2023/04/23 10:05:25;;;;;;;7.75;5.95;;;;;;;18.22;38.24;94674.78;5056409;28;20107;-74
2023/04/23 10:07:50;;;;;;;8.15;6.25;;;;;;;18.35;38.21;94716.25;5073992;28;20194;-74
2023/04/23 10:10:18;;;;;;;6.65;5.75;;;;;;;17.92;37.34;94713.31;5072833;28;20040;-74
2023/04/23 10:12:45;;;;;;;8.25;6.68;;;;;;;17.96;38.24;94697.00;5056158;28;20032;-74
2023/04/23 10:15:11;;;;;;;6.57;5.95;;;;;;;18.16;37.79;94702.59;5055990;28;20563;-74
2023/04/23 10:17:36;;;;;;;8.10;6.32;;;;;;;18.45;38.12;94701.88;5056258;28;20047;-75
2023/04/23 10:20:02;;;;;;;8.00;5.47;;;;;;;18.19;36.76;94675.13;5072369;28;20487;-74
2023/04/23 10:22:28;;;;;;;6.05;5.35;;;;;;;18.53;36.51;94698.38;5072421;28;20033;-74
2023/04/23 10:24:56;;;;;;;6.22;5.20;;;;;;;18.38;37.46;94684.34;5072696;28;20481;-74
2023/04/23 10:27:21;;;;;;;10.43;6.50;;;;;;;18.59;37.52;94691.56;5056044;28;20111;-75
2023/04/23 10:29:47;;;;;;;6.35;5.38;;;;;;;18.16;36.41;94681.56;5055730;28;20496;-74
2023/04/23 10:32:12;;;;;;;10.50;5.18;;;;;;;18.13;36.91;94679.28;5038710;28;20090;-74
2023/04/23 10:34:38;;;;;;;5.40;4.90;;;;;;;18.44;35.92;94679.22;5055870;28;20044;-75
2023/04/23 10:37:03;;;;;;;9.32;5.85;;;;;;;18.56;36.35;94673.50;5055561;28;20032;-74
2023/04/23 10:39:35;;;;;;;6.28;5.57;;;;;;;18.40;36.43;94663.97;5055703;28;20470;-74
2023/04/23 10:42:01;;;;;;;11.10;6.00;;;;;;;18.60;36.56;94672.16;5056152;28;20414;-74
2023/04/23 10:44:35;;;;;;;7.15;5.38;;;;;;;18.68;36.18;94669.44;5055678;28;20401;-74
2023/04/23 10:47:01;;;;;;;8.52;6.57;;;;;;;18.72;35.11;94670.69;5038888;28;20175;-74
2023/04/23 10:49:30;;;;;;;6.88;4.97;;;;;;;18.22;33.91;94659.84;5072359;28;20545;-75
2023/04/23 10:52:16;;;;;;;6.60;5.20;;;;;;;18.25;34.11;94664.75;5055281;28;20064;-74
2023/04/23 10:54:42;;;;;;;7.60;5.40;;;;;;;18.15;34.38;94658.91;5072034;28;20028;-74
2023/04/23 10:57:08;;;;;;;7.47;5.60;;;;;;;18.30;35.16;94656.31;5055242;28;20032;-74
2023/04/23 10:59:38;;;;;;;5.40;4.85;;;;;;;17.71;35.11;94659.53;5055195;28;20036;-74
2023/04/23 11:02:11;;;;;;;6.15;4.95;;;;;;;17.68;34.45;94646.75;5055065;28;20048;-74
2023/04/23 11:04:52;;;;;;;6.38;4.75;;;;;;;17.74;33.16;94640.78;5055432;28;20539;-74
2023/04/23 11:07:18;;;;;;;;;;;;;;;18.00;32.61;94647.56;5039421;28;20040;-73
2023/04/23 11:09:46;;;;;;;5.20;4.47;;;;;;;18.18;33.06;94648.03;5071456;28;19922;-74
2023/04/23 11:12:29;;;;;;;6.97;4.32;;;;;;;17.97;31.75;94651.34;5071250;28;20104;-74
2023/04/23 11:14:55;;;;;;;6.40;4.55;;;;;;;18.37;31.83;94643.28;5057045;28;20041;-74
2023/04/23 11:17:22;;;;;;;6.07;4.68;;;;;;;18.47;32.00;94641.19;5071437;28;20466;-73
2023/04/23 11:20:05;;;;;;;6.05;4.20;;;;;;;18.47;31.96;94642.03;5071502;28;20036;-74
2023/04/23 11:22:41;;;;;;;5.70;4.53;;;;;;;18.30;31.89;94607.19;5071098;28;20036;-74
2023/04/23 11:25:11;;;;;;;5.75;4.53;;;;;;;18.51;31.24;94627.50;5038202;28;20083;-74
2023/04/23 11:27:41;;;;;;;4.68;3.92;;;;;;;18.41;30.69;94636.66;5054625;28;20032;-74
2023/04/23 11:30:19;;;;;;;4.95;4.45;;;;;;;18.20;30.91;94625.03;5054227;28;20025;-73
2023/04/23 11:32:47;;;;;;;6.03;4.50;;;;;;;18.25;30.87;94616.63;5054216;28;20518;-74